Time;durP1;ratioP1;P1;durP2;ratioP2;P2;SDS_P1;SDS_P2;PMS_P1;PMS_P2;Temp;Humidity;BMP_temperature;BMP_pressure;BME280_temperature;BME280_humidity;BME280_pressure;Samples;Min_cycle;Max_cycle;Signal;HPM_P1;HPM_P2
2024/01/24 00:01:20;;;;;;;1.30;1.30;;;16.40;68.30;;;;;;5007937;28;45391;-71
2024/01/24 00:03:49;;;;;;;1.30;1.30;;;16.50;67.20;;;;;;5010175;28;43501;-72
2024/01/24 00:06:18;;;;;;;1.20;1.20;;;16.60;67.00;;;;;;5029094;28;43445;-70
2024/01/24 00:08:48;;;;;;;1.40;1.40;;;16.60;66.80;;;;;;5028757;28;43432;-71
2024/01/24 00:11:16;;;;;;;1.20;1.20;;;16.60;66.80;;;;;;5028899;28;43915;-71
2024/01/24 00:13:44;;;;;;;1.17;1.17;;;16.60;67.70;;;;;;5010692;28;44391;-71
2024/01/24 00:16:12;;;;;;;1.27;1.27;;;16.60;67.20;;;;;;5023731;28;43387;-71
2024/01/24 00:18:40;;;;;;;1.20;1.20;;;16.60;67.00;;;;;;5010958;28;43457;-71
2024/01/24 00:21:10;;;;;;;1.30;1.30;;;16.60;67.10;;;;;;5005445;28;46035;-71
2024/01/24 00:23:38;;;;;;;1.40;1.40;;;16.50;67.10;;;;;;5027940;28;43942;-70
2024/01/24 00:26:06;;;;;;;1.20;1.20;;;16.50;67.20;;;;;;5011466;28;43608;-72
2024/01/24 00:28:34;;;;;;;1.20;1.20;;;16.50;67.30;;;;;;5027102;28;43533;-71
2024/01/24 00:31:03;;;;;;;1.20;1.20;;;16.50;67.50;;;;;;5006585;28;46409;-71
2024/01/24 00:33:31;;;;;;;1.10;1.10;;;16.40;67.30;;;;;;5022398;28;43974;-70
2024/01/24 00:35:59;;;;;;;1.20;1.20;;;16.40;67.40;;;;;;5026820;28;43472;-71
2024/01/24 00:38:28;;;;;;;1.10;1.10;;;16.40;67.40;;;;;;5022827;28;43501;-71
2024/01/24 00:40:56;;;;;;;1.10;1.10;;;16.40;67.40;;;;;;5024542;28;45933;-72
2024/01/24 00:43:25;;;;;;;1.17;1.17;;;16.40;67.40;;;;;;5022480;28;43465;-72
2024/01/24 00:45:55;;;;;;;1.20;1.20;;;16.40;67.50;;;;;;5028450;28;43530;-70
2024/01/24 00:48:24;;;;;;;1.50;1.50;;;16.40;67.70;;;;;;5028880;28;43506;-70
2024/01/24 00:50:53;;;;;;;1.10;1.10;;;16.50;68.40;;;;;;5009487;28;44209;-75
2024/01/24 00:53:21;;;;;;;1.20;1.20;;;16.50;67.30;;;;;;5026411;28;43448;-73
2024/01/24 00:55:50;;;;;;;1.30;1.30;;;16.60;67.10;;;;;;5027173;28;44068;-75
2024/01/24 00:58:19;;;;;;;1.00;1.00;;;16.60;67.00;;;;;;5009499;28;43554;-75
2024/01/24 01:00:47;;;;;;;1.03;1.03;;;16.60;67.10;;;;;;5004191;28;45881;-73
2024/01/24 01:03:15;;;;;;;1.20;1.20;;;16.50;67.10;;;;;;5008552;28;44415;-74
2024/01/24 01:05:43;;;;;;;1.20;1.20;;;16.50;67.30;;;;;;5023341;28;43396;-74
2024/01/24 01:08:11;;;;;;;1.00;1.00;;;16.50;67.20;;;;;;5027566;28;43370;-74
2024/01/24 01:10:39;;;;;;;1.10;1.10;;;16.50;67.20;;;;;;5026260;28;44110;-74
2024/01/24 01:13:09;;;;;;;1.00;1.00;;;16.50;67.30;;;;;;5007891;28;44671;-73
2024/01/24 01:15:37;;;;;;;1.10;1.10;;;16.50;67.30;;;;;;5002974;28;43979;-75
2024/01/24 01:18:05;;;;;;;1.20;1.20;;;16.50;67.40;;;;;;5009330;28;44094;-73
2024/01/24 01:20:33;;;;;;;1.10;1.10;;;16.40;67.40;;;;;;5023430;28;43627;-75
2024/01/24 01:23:02;;;;;;;1.10;1.10;;;16.40;67.50;;;;;;5008788;28;45024;-73
2024/01/24 01:25:30;;;;;;;0.90;0.90;;;16.40;67.40;;;;;;5026408;28;43464;-74
2024/01/24 01:27:58;;;;;;;0.90;0.90;;;16.40;67.50;;;;;;5027002;28;43485;-75
2024/01/24 01:30:27;;;;;;;1.17;1.17;;;16.40;68.20;;;;;;5027502;28;43875;-73
2024/01/24 01:32:55;;;;;;;1.37;1.20;;;16.40;67.60;;;;;;5027966;28;43528;-70
2024/01/24 01:35:24;;;;;;;0.90;0.90;;;16.40;67.60;;;;;;5027787;28;43388;-71
2024/01/24 01:37:52;;;;;;;1.07;1.07;;;16.40;67.70;;;;;;5028649;28;43326;-71
2024/01/24 01:40:20;;;;;;;1.07;1.07;;;16.40;67.70;;;;;;5025769;28;43580;-73
2024/01/24 01:42:48;;;;;;;1.03;1.03;;;16.50;67.50;;;;;;5027774;28;43587;-71
2024/01/24 01:45:16;;;;;;;1.13;1.13;;;16.60;67.30;;;;;;5027795;28;43824;-72
2024/01/24 01:47:46;;;;;;;0.80;0.80;;;16.60;67.00;;;;;;5009613;28;43482;-72
2024/01/24 01:50:15;;;;;;;0.90;0.90;;;16.60;67.10;;;;;;5004350;28;45582;-70
2024/01/24 01:52:43;;;;;;;0.97;0.97;;;16.60;67.20;;;;;;5027695;28;43637;-70
2024/01/24 01:55:11;;;;;;;1.10;1.10;;;16.50;67.30;;;;;;5027759;28;43736;-73
2024/01/24 01:57:41;;;;;;;1.10;1.10;;;16.50;67.20;;;;;;5027268;28;43369;-72
2024/01/24 02:00:11;;;;;;;1.03;1.03;;;16.50;67.20;;;;;;5027062;28;43818;-73
2024/01/24 02:02:39;;;;;;;1.00;1.00;;;16.50;67.30;;;;;;5025858;28;44113;-73
2024/01/24 02:05:08;;;;;;;0.97;0.97;;;16.50;67.40;;;;;;5025479;28;43406;-73
2024/01/24 02:07:36;;;;;;;1.07;1.07;;;16.50;67.50;;;;;;5026704;28;44152;-73
2024/01/24 02:10:05;;;;;;;1.20;1.20;;;16.40;67.40;;;;;;5026378;28;44011;-73
2024/01/24 02:12:33;;;;;;;1.00;1.00;;;16.40;67.50;;;;;;5024019;28;43522;-73
2024/01/24 02:15:02;;;;;;;0.77;0.77;;;16.40;67.40;;;;;;5016895;28;43752;-74
2024/01/24 02:17:30;;;;;;;0.90;0.90;;;16.40;67.50;;;;;;5026694;28;43501;-75
2024/01/24 02:19:58;;;;;;;1.17;1.17;;;16.40;67.60;;;;;;5008094;28;45433;-72
2024/01/24 02:22:27;;;;;;;0.93;0.93;;;16.40;67.60;;;;;;5025460;28;43517;-73
2024/01/24 02:24:57;;;;;;;1.10;1.10;;;16.40;67.80;;;;;;5026350;28;43879;-75
2024/01/24 02:27:25;;;;;;;0.90;0.90;;;16.40;68.40;;;;;;5007823;28;43581;-72
2024/01/24 02:29:56;;;;;;;1.17;1.17;;;16.40;67.70;;;;;;5007248;28;44969;-73
2024/01/24 02:32:24;;;;;;;1.00;1.00;;;16.40;67.70;;;;;;5027014;28;44193;-74
2024/01/24 02:34:52;;;;;;;1.00;1.00;;;16.40;67.70;;;;;;5029372;28;43397;-75
2024/01/24 02:37:21;;;;;;;1.10;1.10;;;16.40;67.70;;;;;;5028579;28;43347;-74
2024/01/24 02:39:49;;;;;;;0.80;0.80;;;16.40;67.70;;;;;;5010776;28;45737;-72
2024/01/24 02:42:19;;;;;;;1.10;1.10;;;16.40;67.70;;;;;;5008932;28;45048;-74
2024/01/24 02:44:47;;;;;;;1.00;1.00;;;16.40;67.80;;;;;;5010647;28;43442;-73
2024/01/24 02:47:15;;;;;;;1.10;1.10;;;16.40;67.90;;;;;;5011637;28;43412;-73
2024/01/24 02:49:43;;;;;;;1.17;1.17;;;16.50;67.70;;;;;;5028415;28;43615;-73
2024/01/24 02:52:11;;;;;;;1.00;1.00;;;16.60;67.40;;;;;;5011093;28;44737;-76
2024/01/24 02:54:41;;;;;;;1.00;1.00;;;16.60;67.00;;;;;;5028237;28;43332;-73
2024/01/24 02:57:09;;;;;;;1.00;1.00;;;16.60;66.90;;;;;;5007804;28;44108;-74
2024/01/24 02:59:39;;;;;;;1.00;1.00;;;16.60;67.00;;;;;;5028434;28;43880;-73
2024/01/24 03:02:07;;;;;;;1.00;1.00;;;16.60;67.20;;;;;;5008630;28;44747;-73
2024/01/24 03:04:35;;;;;;;1.00;1.00;;;16.60;67.20;;;;;;5028042;28;43495;-75
2024/01/24 03:07:03;;;;;;;0.83;0.83;;;16.60;67.10;;;;;;5010746;28;43619;-73
2024/01/24 03:09:31;;;;;;;0.90;0.90;;;16.60;67.30;;;;;;5027590;28;43839;-70
2024/01/24 03:11:59;;;;;;;0.97;0.97;;;16.50;67.20;;;;;;5030153;28;43481;-70
2024/01/24 03:14:27;;;;;;;0.80;0.80;;;16.50;67.30;;;;;;5030133;28;43358;-74
2024/01/24 03:16:57;;;;;;;1.00;1.00;;;16.50;67.50;;;;;;5031000;28;43314;-71
2024/01/24 03:19:25;;;;;;;0.80;0.80;;;16.50;67.70;;;;;;5029954;28;43605;-70
2024/01/24 03:21:54;;;;;;;0.80;0.80;;;16.40;67.40;;;;;;5008039;28;44864;-71
2024/01/24 03:24:22;;;;;;;0.97;0.97;;;16.40;67.50;;;;;;5024340;28;43475;-72
2024/01/24 03:26:50;;;;;;;0.80;0.80;;;16.50;67.70;;;;;;5027935;28;43382;-71
2024/01/24 03:29:19;;;;;;;0.83;0.83;;;16.40;67.60;;;;;;5027759;28;44020;-70
2024/01/24 03:31:47;;;;;;;1.03;1.03;;;16.40;67.70;;;;;;5012147;28;44769;-69
2024/01/24 03:34:17;;;;;;;0.70;0.70;;;16.40;67.80;;;;;;5029773;28;43433;-71
2024/01/24 03:36:45;;;;;;;1.00;1.00;;;16.40;67.90;;;;;;5011648;28;44187;-71
2024/01/24 03:39:13;;;;;;;1.00;1.00;;;16.50;67.90;;;;;;5029623;28;43769;-70
2024/01/24 03:41:41;;;;;;;0.90;0.90;;;16.50;67.50;;;;;;5011305;28;44572;-70
2024/01/24 03:44:09;;;;;;;0.90;0.90;;;16.60;67.40;;;;;;5028395;28;43377;-70
2024/01/24 03:46:37;;;;;;;0.90;0.90;;;16.60;67.40;;;;;;5029834;28;43428;-70
2024/01/24 03:49:06;;;;;;;0.83;0.83;;;16.50;67.30;;;;;;5027201;28;43616;-71
2024/01/24 03:51:35;;;;;;;0.80;0.80;;;16.50;67.50;;;;;;5022617;28;43965;-71
2024/01/24 03:54:03;;;;;;;1.00;1.00;;;16.50;67.60;;;;;;5011330;28;43510;-71
2024/01/24 03:56:32;;;;;;;0.87;0.87;;;16.50;67.50;;;;;;5029537;28;43432;-73
2024/01/24 03:59:00;;;;;;;0.80;0.80;;;16.50;67.60;;;;;;5028715;28;43892;-70
2024/01/24 04:01:28;;;;;;;0.97;0.97;;;16.50;67.60;;;;;;5020993;28;43464;-72
2024/01/24 04:03:56;;;;;;;0.87;0.87;;;16.40;67.60;;;;;;5028159;28;43448;-72
2024/01/24 04:06:25;;;;;;;0.80;0.80;;;16.40;67.70;;;;;;5029730;28;43461;-72
2024/01/24 04:08:54;;;;;;;0.70;0.70;;;16.40;67.80;;;;;;5010920;28;44111;-72
2024/01/24 04:11:22;;;;;;;0.83;0.83;;;16.40;67.70;;;;;;5007146;28;45114;-71
2024/01/24 04:13:52;;;;;;;0.80;0.80;;;16.40;67.70;;;;;;5028581;28;43380;-70
2024/01/24 04:16:20;;;;;;;0.70;0.70;;;16.40;67.70;;;;;;5009696;28;44011;-70
2024/01/24 04:18:50;;;;;;;0.90;0.90;;;16.40;67.70;;;;;;5022823;28;43616;-71
2024/01/24 04:21:18;;;;;;;0.80;0.80;;;16.40;67.70;;;;;;5024085;28;43953;-73
2024/01/24 04:23:46;;;;;;;0.70;0.70;;;16.40;67.80;;;;;;5009970;28;43374;-74
2024/01/24 04:26:16;;;;;;;0.70;0.70;;;16.40;67.90;;;;;;5010194;28;43468;-74
2024/01/24 04:28:44;;;;;;;0.87;0.87;;;16.50;67.90;;;;;;5009444;28;46003;-74
2024/01/24 04:31:12;;;;;;;0.80;0.80;;;16.60;67.60;;;;;;5007880;28;43445;-72
2024/01/24 04:33:40;;;;;;;0.90;0.90;;;16.60;67.30;;;;;;5009626;28;43400;-72
2024/01/24 04:36:09;;;;;;;0.77;0.77;;;16.60;67.10;;;;;;5027929;28;43410;-73
2024/01/24 04:38:38;;;;;;;0.70;0.70;;;16.60;67.10;;;;;;5008695;28;45685;-73
2024/01/24 04:41:10;;;;;;;0.73;0.73;;;16.60;68.00;;;;;;5022924;28;43447;-73
2024/01/24 04:43:41;;;;;;;0.67;0.67;;;16.60;67.40;;;;;;5027430;28;43500;-75
2024/01/24 04:46:13;;;;;;;0.80;0.80;;;16.60;67.30;;;;;;5009750;28;43672;-73
2024/01/24 04:48:42;;;;;;;0.80;0.80;;;16.60;67.30;;;;;;5027478;28;43659;-74
2024/01/24 04:51:12;;;;;;;0.60;0.60;;;16.60;67.40;;;;;;5027697;28;43878;-76
2024/01/24 04:53:40;;;;;;;0.80;0.80;;;16.60;67.40;;;;;;5026822;28;43373;-71
2024/01/24 04:56:08;;;;;;;0.80;0.80;;;16.60;67.60;;;;;;5005769;28;43470;-71
2024/01/24 04:58:37;;;;;;;0.70;0.70;;;16.50;67.50;;;;;;5027120;28;43959;-72
2024/01/24 05:01:06;;;;;;;0.73;0.73;;;16.50;67.60;;;;;;5009324;28;44581;-73
2024/01/24 05:03:35;;;;;;;0.70;0.70;;;16.50;67.50;;;;;;5009205;28;43503;-74
2024/01/24 05:06:03;;;;;;;0.60;0.60;;;16.50;67.50;;;;;;5007847;28;43435;-73
2024/01/24 05:08:38;;;;;;;0.87;0.87;;;16.50;67.60;;;;;;5026818;28;43625;-73
2024/01/24 05:11:06;;;;;;;0.67;0.67;;;16.50;67.60;;;;;;5020842;28;43464;-74
2024/01/24 05:13:34;;;;;;;0.70;0.70;;;16.50;67.70;;;;;;5008708;28;43449;-74
2024/01/24 05:16:02;;;;;;;0.70;0.70;;;16.50;67.90;;;;;;5008396;28;43502;-74
2024/01/24 05:18:31;;;;;;;0.70;0.70;;;16.50;67.90;;;;;;5008997;28;45750;-73
2024/01/24 05:21:02;;;;;;;0.70;0.70;;;16.60;67.70;;;;;;5026018;28;43462;-74
2024/01/24 05:23:30;;;;;;;0.70;0.70;;;16.60;67.40;;;;;;5008622;28;44449;-74
2024/01/24 05:25:58;;;;;;;0.60;0.60;;;16.60;67.30;;;;;;5008861;28;43460;-75
2024/01/24 05:28:26;;;;;;;0.70;0.70;;;16.60;67.40;;;;;;5026698;28;43612;-74
2024/01/24 05:30:54;;;;;;;0.50;0.50;;;16.60;67.50;;;;;;5009728;28;44639;-70
2024/01/24 05:33:23;;;;;;;0.80;0.80;;;16.60;67.70;;;;;;5027911;28;43928;-71
2024/01/24 05:35:53;;;;;;;0.50;0.50;;;16.60;67.50;;;;;;5028099;28;43410;-70
2024/01/24 05:38:21;;;;;;;0.60;0.60;;;16.60;67.50;;;;;;5009789;28;45607;-72
2024/01/24 05:40:49;;;;;;;0.60;0.60;;;16.60;67.60;;;;;;5027798;28;43432;-71
2024/01/24 05:43:17;;;;;;;0.60;0.60;;;16.60;67.70;;;;;;5028329;28;44047;-69
2024/01/24 05:45:49;;;;;;;0.60;0.60;;;16.50;67.60;;;;;;5009351;28;43501;-70
2024/01/24 05:48:18;;;;;;;0.70;0.70;;;16.50;67.60;;;;;;5009470;28;45558;-71
2024/01/24 05:50:46;;;;;;;0.60;0.60;;;16.50;67.90;;;;;;5027366;28;43452;-72
2024/01/24 05:53:15;;;;;;;0.60;0.60;;;16.60;67.80;;;;;;5009034;28;43477;-70
2024/01/24 05:55:43;;;;;;;0.70;0.70;;;16.60;67.40;;;;;;5008831;28;43421;-70
2024/01/24 05:58:12;;;;;;;0.50;0.50;;;16.60;67.20;;;;;;5026527;28;45189;-71
2024/01/24 06:00:40;;;;;;;0.63;0.63;;;16.60;67.20;;;;;;5005592;28;44545;-72
2024/01/24 06:03:08;;;;;;;0.50;0.50;;;16.60;67.30;;;;;;5009744;28;43429;-72
2024/01/24 06:05:36;;;;;;;0.67;0.67;;;16.60;67.40;;;;;;5027650;28;43348;-71
2024/01/24 06:08:06;;;;;;;0.40;0.40;;;16.60;67.70;;;;;;5029701;28;43605;-70
2024/01/24 06:10:35;;;;;;;0.50;0.50;;;16.60;67.40;;;;;;5011821;28;44982;-78
2024/01/24 06:13:04;;;;;;;0.50;0.50;;;16.60;67.50;;;;;;5025308;28;43470;-76
2024/01/24 06:15:32;;;;;;;0.43;0.43;;;16.60;67.60;;;;;;5005293;28;43860;-75
2024/01/24 06:18:00;;;;;;;0.50;0.50;;;16.50;67.50;;;;;;5024554;28;43885;-75
2024/01/24 06:20:28;;;;;;;0.57;0.57;;;16.50;67.70;;;;;;5023747;28;43494;-76
2024/01/24 06:22:56;;;;;;;0.67;0.67;;;16.50;67.80;;;;;;5023385;28;43463;-78
2024/01/24 06:25:24;;;;;;;0.50;0.50;;;16.50;67.90;;;;;;5024061;28;43450;-76
2024/01/24 06:27:54;;;;;;;0.70;0.70;;;16.50;67.80;;;;;;5005841;28;45699;-76
2024/01/24 06:30:22;;;;;;;0.67;0.67;;;16.50;67.90;;;;;;5023388;28;43422;-75
2024/01/24 06:32:52;;;;;;;0.60;0.60;;;16.50;67.90;;;;;;5023597;28;44031;-75
2024/01/24 06:35:21;;;;;;;0.50;0.50;;;16.50;67.90;;;;;;5011569;28;43636;-76
2024/01/24 06:37:49;;;;;;;0.57;0.57;;;16.50;67.90;;;;;;5026062;28;43674;-75
2024/01/24 06:40:19;;;;;;;0.80;0.80;;;16.50;68.10;;;;;;5011653;28;44938;-70
2024/01/24 06:42:47;;;;;;;0.53;0.53;;;16.50;68.00;;;;;;5026764;28;43424;-71
2024/01/24 06:45:17;;;;;;;0.50;0.50;;;16.60;67.70;;;;;;5030615;28;43892;-71
2024/01/24 06:47:45;;;;;;;0.47;0.47;;;16.70;67.40;;;;;;5029002;28;43890;-72
2024/01/24 06:50:14;;;;;;;0.40;0.40;;;16.80;67.20;;;;;;5010717;28;44746;-72
2024/01/24 06:52:42;;;;;;;0.67;0.67;;;16.70;67.00;;;;;;5024329;28;43515;-69
2024/01/24 06:55:10;;;;;;;0.40;0.40;;;16.70;67.10;;;;;;5026040;28;43627;-70
2024/01/24 06:57:38;;;;;;;0.43;0.43;;;16.70;67.40;;;;;;5027123;28;43786;-72
2024/01/24 07:00:08;;;;;;;0.50;0.50;;;16.70;67.20;;;;;;5024384;28;44398;-71
2024/01/24 07:02:38;;;;;;;0.40;0.40;;;16.70;67.10;;;;;;5030471;28;43305;-70
2024/01/24 07:05:07;;;;;;;0.43;0.43;;;16.70;67.20;;;;;;5024569;28;43991;-71
2024/01/24 07:07:36;;;;;;;0.50;0.50;;;16.60;67.30;;;;;;5030181;28;43874;-70
2024/01/24 07:10:05;;;;;;;0.40;0.40;;;16.60;68.20;;;;;;5008997;28;43499;-70
2024/01/24 07:12:33;;;;;;;0.50;0.50;;;16.60;67.70;;;;;;5027218;28;43380;-69
2024/01/24 07:15:01;;;;;;;0.47;0.47;;;16.60;67.70;;;;;;5029648;28;43509;-70
2024/01/24 07:17:29;;;;;;;0.50;0.50;;;16.60;67.50;;;;;;5015673;28;45777;-72
2024/01/24 07:19:58;;;;;;;0.40;0.40;;;16.60;67.60;;;;;;5004527;28;44856;-73
2024/01/24 07:22:27;;;;;;;0.60;0.60;;;16.60;67.70;;;;;;5006801;28;43524;-73
2024/01/24 07:24:55;;;;;;;0.50;0.50;;;16.60;67.80;;;;;;5026725;28;44066;-74
2024/01/24 07:27:23;;;;;;;1.27;0.70;;;16.60;67.80;;;;;;5028445;28;43954;-73
2024/01/24 07:29:51;;;;;;;0.50;0.50;;;16.50;67.80;;;;;;5026738;28;43423;-74
2024/01/24 07:32:19;;;;;;;0.60;0.60;;;16.60;67.70;;;;;;5028540;28;43434;-75
2024/01/24 07:34:47;;;;;;;0.50;0.50;;;16.60;67.80;;;;;;5027457;28;43843;-73
2024/01/24 07:37:17;;;;;;;0.67;0.67;;;16.50;67.70;;;;;;5028457;28;43856;-74
2024/01/24 07:39:45;;;;;;;0.53;0.53;;;16.50;67.80;;;;;;5028281;28;43453;-73
2024/01/24 07:42:13;;;;;;;0.70;0.70;;;16.50;67.90;;;;;;5028440;28;43398;-73
2024/01/24 07:44:41;;;;;;;0.70;0.70;;;16.50;67.90;;;;;;5003322;28;43588;-75
2024/01/24 07:47:10;;;;;;;0.60;0.60;;;16.50;68.10;;;;;;5028291;28;43874;-74
2024/01/24 07:49:39;;;;;;;1.20;0.63;;;16.60;67.90;;;;;;5005854;28;44726;-72
2024/01/24 07:52:08;;;;;;;0.50;0.50;;;16.70;67.60;;;;;;5030228;28;43481;-71
2024/01/24 07:54:37;;;;;;;0.60;0.60;;;16.80;67.30;;;;;;5029914;28;43972;-71
2024/01/24 07:57:06;;;;;;;1.03;0.50;;;16.80;67.20;;;;;;5010582;28;45897;-71
2024/01/24 07:59:34;;;;;;;1.23;0.60;;;16.70;67.20;;;;;;5006484;28;44555;-70
2024/01/24 08:02:03;;;;;;;0.60;0.60;;;16.70;67.40;;;;;;5005790;28;43497;-72
2024/01/24 08:04:32;;;;;;;1.57;0.87;;;16.70;67.40;;;;;;5024410;28;43878;-70
2024/01/24 08:07:00;;;;;;;0.63;0.63;;;16.70;67.40;;;;;;5009218;28;46010;-71
2024/01/24 08:09:28;;;;;;;0.37;0.30;;;16.70;67.50;;;;;;5018964;28;43393;-71
2024/01/24 08:11:58;;;;;;;0.60;0.60;;;16.70;67.60;;;;;;5023231;28;43413;-72
2024/01/24 08:14:26;;;;;;;0.50;0.50;;;16.60;67.60;;;;;;5004322;28;43500;-70
2024/01/24 08:17:03;;;;;;;0.93;0.67;;;16.60;67.80;;;;;;5027672;28;43672;-70
2024/01/24 08:19:31;;;;;;;0.77;0.77;;;16.60;68.00;;;;;;5026580;28;43398;-71
2024/01/24 08:22:00;;;;;;;1.70;0.70;;;16.60;67.90;;;;;;5008381;28;43430;-71
2024/01/24 08:24:28;;;;;;;0.80;0.80;;;16.60;68.00;;;;;;5029602;28;43416;-69
2024/01/24 08:26:57;;;;;;;0.77;0.73;;;16.60;68.00;;;;;;5010700;28;45660;-71
2024/01/24 08:29:27;;;;;;;0.70;0.70;;;16.60;68.00;;;;;;5028139;28;43478;-77
2024/01/24 08:32:05;;;;;;;1.00;1.00;;;16.50;67.90;;;;;;5031129;28;43457;-77
2024/01/24 08:34:36;;;;;;;0.80;0.80;;;16.50;68.10;;;;;;5034223;28;43449;-77
2024/01/24 08:37:05;;;;;;;1.70;0.97;;;16.60;68.30;;;;;;5033668;28;43610;-77
2024/01/24 08:39:33;;;;;;;0.70;0.70;;;16.60;68.00;;;;;;5035882;28;43544;-76
2024/01/24 08:42:03;;;;;;;2.20;0.90;;;16.70;67.70;;;;;;5035821;28;43403;-77
2024/01/24 08:44:31;;;;;;;0.83;0.83;;;16.70;67.50;;;;;;5032877;28;43586;-77
2024/01/24 08:46:59;;;;;;;0.93;0.93;;;16.70;67.50;;;;;;5024738;28;44165;-77
2024/01/24 08:49:27;;;;;;;0.70;0.70;;;16.70;67.60;;;;;;5026316;28;43829;-77
2024/01/24 08:51:56;;;;;;;0.80;0.80;;;16.60;67.70;;;;;;5010736;28;43580;-77
2024/01/24 08:54:24;;;;;;;0.70;0.70;;;16.60;67.70;;;;;;5027704;28;43457;-77
2024/01/24 08:56:53;;;;;;;0.93;0.90;;;16.60;67.70;;;;;;5026890;28;43979;-76
2024/01/24 08:59:23;;;;;;;1.00;1.00;;;16.60;67.70;;;;;;5029078;28;43517;-77
2024/01/24 09:01:55;;;;;;;0.90;0.90;;;16.60;67.80;;;;;;5009395;28;43831;-79
2024/01/24 09:04:23;;;;;;;0.90;0.90;;;16.60;68.00;;;;;;5023938;28;43532;-79
2024/01/24 09:06:52;;;;;;;0.77;0.77;;;16.60;68.00;;;;;;5010718;28;45784;-78
2024/01/24 09:09:20;;;;;;;0.80;0.80;;;16.60;68.20;;;;;;5027156;28;43408;-77
2024/01/24 09:11:49;;;;;;;1.27;1.20;;;16.60;68.10;;;;;;5027154;28;43423;-76
2024/01/24 09:14:25;;;;;;;1.00;1.00;;;16.60;68.10;;;;;;5028652;28;44004;-77
2024/01/24 09:16:54;;;;;;;0.80;0.80;;;16.60;68.10;;;;;;5026744;28;43609;-76
2024/01/24 09:19:23;;;;;;;1.00;1.00;;;16.60;68.20;;;;;;5026987;28;43445;-79
2024/01/24 09:21:52;;;;;;;0.90;0.90;;;16.50;68.10;;;;;;5011134;28;43972;-76
2024/01/24 09:24:20;;;;;;;1.13;1.13;;;16.50;68.20;;;;;;5015963;28;43611;-79
2024/01/24 09:26:48;;;;;;;1.17;1.10;;;16.50;68.10;;;;;;5027044;28;43848;-76
2024/01/24 09:29:18;;;;;;;1.27;1.20;;;16.50;68.10;;;;;;5003752;28;44285;-77
2024/01/24 09:31:48;;;;;;;1.27;1.27;;;16.50;68.10;;;;;;5023570;28;43901;-74
2024/01/24 09:34:16;;;;;;;0.90;0.90;;;16.60;68.20;;;;;;5022469;28;43773;-76
2024/01/24 09:36:45;;;;;;;2.93;1.20;;;16.50;68.10;;;;;;5008764;28;45905;-77
2024/01/24 09:39:13;;;;;;;2.30;1.73;;;16.50;68.20;;;;;;5006644;28;45051;-70
2024/01/24 09:41:42;;;;;;;9.60;2.00;;;16.50;68.50;;;;;;5011129;28;43358;-71
2024/01/24 09:44:11;;;;;;;8.90;2.10;;;16.60;68.70;;;;;;5013542;28;43608;-71
2024/01/24 09:46:40;;;;;;;8.70;2.30;;;16.70;68.30;;;;;;5031737;28;43811;-72
2024/01/24 09:49:10;;;;;;;12.57;2.20;;;16.80;67.90;;;;;;5031776;28;43363;-70
2024/01/24 09:51:39;;;;;;;3.50;1.70;;;16.80;67.70;;;;;;5013878;28;43504;-72
2024/01/24 09:54:08;;;;;;;8.70;2.10;;;16.80;67.70;;;;;;5012556;28;43875;-71
2024/01/24 09:56:37;;;;;;;8.77;2.63;;;16.70;67.70;;;;;;5007231;28;45994;-71
2024/01/24 09:59:05;;;;;;;16.07;2.33;;;16.70;67.90;;;;;;5030846;28;43480;-72
2024/01/24 10:01:34;;;;;;;8.20;1.80;;;16.70;67.80;;;;;;5025442;28;43389;-71
2024/01/24 10:04:03;;;;;;;2.77;2.40;;;16.70;67.80;;;;;;5025632;28;43583;-71
2024/01/24 10:06:32;;;;;;;5.67;1.90;;;16.70;67.90;;;;;;5012730;28;45347;-71
2024/01/24 10:09:01;;;;;;;8.53;2.37;;;16.70;68.00;;;;;;5030665;28;43516;-75
2024/01/24 10:11:33;;;;;;;9.00;2.37;;;16.70;68.10;;;;;;5027125;28;43442;-72
2024/01/24 10:14:01;;;;;;;10.40;2.50;;;16.60;68.20;;;;;;5030084;28;43476;-73
2024/01/24 10:16:29;;;;;;;6.17;2.20;;;16.60;68.10;;;;;;5029693;28;44059;-73
2024/01/24 10:18:57;;;;;;;3.90;1.83;;;16.60;68.00;;;;;;5010979;28;44912;-74
2024/01/24 10:21:26;;;;;;;12.33;2.07;;;16.60;68.00;;;;;;5029342;28;43971;-74
2024/01/24 10:23:57;;;;;;;3.63;2.00;;;16.60;68.10;;;;;;5030136;28;43456;-74
2024/01/24 10:26:26;;;;;;;2.87;2.20;;;16.60;68.10;;;;;;5011300;28;45798;-74
2024/01/24 10:28:55;;;;;;;6.93;2.20;;;16.60;68.20;;;;;;5029362;28;43525;-74
2024/01/24 10:31:24;;;;;;;5.53;2.30;;;16.60;68.40;;;;;;5029462;28;43377;-74
2024/01/24 10:33:55;;;;;;;4.33;2.10;;;16.60;68.30;;;;;;5029599;28;43833;-74
2024/01/24 10:36:24;;;;;;;5.03;2.20;;;16.70;68.00;;;;;;5029141;28;43581;-74
2024/01/24 10:39:03;;;;;;;5.30;2.03;;;16.80;67.80;;;;;;5029221;28;43947;-73
2024/01/24 10:41:35;;;;;;;2.20;2.00;;;16.80;68.40;;;;;;5029486;28;43436;-73
2024/01/24 10:44:05;;;;;;;2.73;2.00;;;16.80;67.80;;;;;;5011797;28;43459;-74
2024/01/24 10:46:36;;;;;;;3.57;1.80;;;16.70;67.80;;;;;;5029123;28;43839;-73
2024/01/24 10:49:04;;;;;;;5.40;1.97;;;16.70;67.90;;;;;;5010494;28;44932;-70
2024/01/24 10:51:33;;;;;;;4.30;2.00;;;16.70;67.70;;;;;;5013458;28;43401;-74
2024/01/24 10:54:04;;;;;;;2.63;1.53;;;16.70;67.80;;;;;;5032691;28;43405;-70
2024/01/24 10:56:33;;;;;;;4.87;2.00;;;16.70;68.60;;;;;;5030102;28;43700;-71
2024/01/24 10:59:01;;;;;;;4.00;2.03;;;16.70;68.70;;;;;;5012139;28;45007;-73
2024/01/24 11:01:30;;;;;;;6.20;2.10;;;16.70;68.00;;;;;;5009678;28;43460;-73
2024/01/24 11:03:58;;;;;;;3.20;2.30;;;16.70;68.20;;;;;;5005786;28;43448;-70
2024/01/24 11:06:27;;;;;;;3.23;1.80;;;16.70;68.10;;;;;;5027117;28;43731;-69
2024/01/24 11:08:57;;;;;;;2.87;2.03;;;16.70;68.00;;;;;;5025686;28;43813;-71
2024/01/24 11:11:27;;;;;;;2.33;2.13;;;16.70;68.20;;;;;;5006244;28;43402;-72
2024/01/24 11:13:58;;;;;;;3.97;2.23;;;16.60;68.00;;;;;;5030366;28;43401;-70
2024/01/24 11:16:32;;;;;;;7.30;2.20;;;16.60;68.10;;;;;;5013040;28;45722;-71
2024/01/24 11:19:21;;;;;;;3.43;2.17;;;16.60;68.10;;;;;;5026051;28;43385;-72
2024/01/24 11:21:49;;;;;;;3.60;2.00;;;16.70;68.30;;;;;;5009627;28;43361;-74
2024/01/24 11:24:48;;;;;;;2.57;1.73;;;16.70;68.00;;;;;;5012113;28;43376;-76
2024/01/24 11:27:32;;;;;;;2.07;1.87;;;16.80;67.80;;;;;;5006796;28;45734;-79
2024/01/24 11:30:08;;;;;;;1.83;1.73;;;16.80;67.60;;;;;;5028804;28;43537;-78
2024/01/24 11:33:04;;;;;;;2.07;1.97;;;16.80;67.70;;;;;;5029409;28;44053;-76
2024/01/24 11:35:34;;;;;;;3.33;2.20;;;16.80;67.80;;;;;;5011878;28;43475;-77
2024/01/24 11:38:08;;;;;;;2.43;2.10;;;16.80;67.90;;;;;;5028389;28;43864;-78
2024/01/24 11:40:52;;;;;;;3.60;2.27;;;16.70;67.70;;;;;;5027833;28;43494;-77
2024/01/24 11:43:28;;;;;;;3.73;2.27;;;16.70;67.80;;;;;;5028385;28;43484;-76
2024/01/24 11:46:02;;;;;;;2.83;2.20;;;16.70;67.90;;;;;;5022054;28;43696;-75
2024/01/24 11:48:31;;;;;;;2.37;2.27;;;16.70;68.00;;;;;;5005852;28;46035;-74
2024/01/24 11:51:00;;;;;;;2.90;2.20;;;16.70;68.10;;;;;;5008506;28;44940;-76
2024/01/24 11:53:28;;;;;;;3.17;2.60;;;16.70;68.20;;;;;;5028709;28;43807;-76
2024/01/24 11:55:57;;;;;;;2.37;2.27;;;16.70;68.10;;;;;;5029705;28;43424;-77
2024/01/24 11:58:28;;;;;;;2.33;2.17;;;16.80;67.90;;;;;;5010199;28;45921;-76
2024/01/24 12:00:56;;;;;;;2.53;2.33;;;16.80;67.60;;;;;;5005954;28;44686;-77
2024/01/24 12:03:24;;;;;;;2.27;2.17;;;16.80;68.40;;;;;;5007020;28;43415;-75
2024/01/24 12:05:52;;;;;;;3.23;2.50;;;16.80;67.70;;;;;;5026621;28;44058;-78
2024/01/24 12:08:20;;;;;;;2.10;2.00;;;16.80;67.80;;;;;;5027656;28;43912;-77
2024/01/24 12:10:48;;;;;;;2.63;2.13;;;16.80;67.90;;;;;;5025589;28;43384;-75
2024/01/24 12:13:19;;;;;;;2.73;1.90;;;16.80;67.90;;;;;;5009545;28;44014;-77
2024/01/24 12:15:50;;;;;;;3.10;2.30;;;16.80;67.90;;;;;;5028372;28;43452;-77
2024/01/24 12:18:19;;;;;;;3.27;2.80;;;16.70;67.80;;;;;;5028033;28;43817;-78
2024/01/24 12:20:48;;;;;;;2.53;2.30;;;16.70;67.90;;;;;;5009234;28;44691;-78
2024/01/24 12:23:17;;;;;;;2.53;2.33;;;16.70;68.00;;;;;;5009817;28;43400;-77
2024/01/24 12:25:54;;;;;;;2.37;2.17;;;16.70;68.10;;;;;;5104305;27;44289;-76
2024/01/24 12:28:23;;;;;;;3.73;2.50;;;16.70;68.10;;;;;;5105244;27;43434;-73
2024/01/24 12:30:54;;;;;;;2.87;2.37;;;16.80;67.90;;;;;;5103598;27;43394;-75
2024/01/24 12:33:23;;;;;;;2.57;2.30;;;16.90;67.70;;;;;;5105590;27;44034;-73
2024/01/24 12:35:52;;;;;;;2.40;2.20;;;16.90;67.50;;;;;;5104705;27;44092;-73
2024/01/24 12:38:20;;;;;;;2.27;2.07;;;16.90;67.60;;;;;;5102793;27;45030;-73
2024/01/24 12:40:50;;;;;;;2.60;2.40;;;16.80;67.50;;;;;;5105435;27;43778;-75
2024/01/24 12:43:22;;;;;;;3.37;2.60;;;16.80;68.50;;;;;;5105535;27;43457;-73
2024/01/24 12:45:52;;;;;;;3.80;2.30;;;16.80;68.40;;;;;;5104884;27;43843;-74
2024/01/24 12:48:21;;;;;;;3.63;2.60;;;16.80;67.70;;;;;;5105140;27;43980;-74
2024/01/24 12:50:51;;;;;;;3.77;2.60;;;16.80;67.80;;;;;;5104630;27;44023;-73
2024/01/24 12:53:21;;;;;;;4.00;2.80;;;16.80;67.90;;;;;;5103706;27;43467;-75
2024/01/24 12:55:51;;;;;;;3.73;2.77;;;16.70;67.90;;;;;;5097952;27;43943;-74